Airport View

Enter AWOS ICAO identifier for current METAR.

ex. KFNL

KMFV 262320Z AUTO 10SM OVC065 07/03 A2989 RMK AO2 T00700025

26 Jan 2020 23:26

Frequency: 118.175

Phone: 757-787-5660

Other Area AWOS: KTGI - KWAL - KW75 - KSBY

TAF AMD KSBY 261900Z 2619/2718 28007KT P6SM BKN060 FM262300 VRB03KT P6SM BKN050 FM270600 VRB02KT P6SM SCT080 FM271600 26008KT P6SM FEW200